sensor_id;sensor_type;location;lat;lon;timestamp;P1;durP1;ratioP1;P2;durP2;ratioP2
12976;SDS011;6553;48.412;9.514;2023-05-23T00:00:56;6.80;;;6.13;;
12976;SDS011;6553;48.412;9.514;2023-05-23T00:03:23;6.55;;;5.97;;
12976;SDS011;6553;48.412;9.514;2023-05-23T00:05:49;6.30;;;5.78;;
12976;SDS011;6553;48.412;9.514;2023-05-23T00:08:15;6.22;;;5.63;;
12976;SDS011;6553;48.412;9.514;2023-05-23T00:10:43;6.80;;;6.20;;
12976;SDS011;6553;48.412;9.514;2023-05-23T00:13:10;6.30;;;5.80;;
12976;SDS011;6553;48.412;9.514;2023-05-23T00:15:39;5.88;;;5.43;;
12976;SDS011;6553;48.412;9.514;2023-05-23T00:18:06;6.82;;;6.05;;
12976;SDS011;6553;48.412;9.514;2023-05-23T00:20:36;6.78;;;6.28;;
12976;SDS011;6553;48.412;9.514;2023-05-23T00:23:05;6.15;;;5.65;;
12976;SDS011;6553;48.412;9.514;2023-05-23T00:25:35;6.80;;;6.20;;
12976;SDS011;6553;48.412;9.514;2023-05-23T00:28:01;6.93;;;6.40;;
12976;SDS011;6553;48.412;9.514;2023-05-23T00:30:29;6.70;;;6.13;;
12976;SDS011;6553;48.412;9.514;2023-05-23T00:32:56;7.55;;;6.30;;
12976;SDS011;6553;48.412;9.514;2023-05-23T00:35:24;6.50;;;5.90;;
12976;SDS011;6553;48.412;9.514;2023-05-23T00:37:50;6.25;;;5.75;;
12976;SDS011;6553;48.412;9.514;2023-05-23T00:40:17;6.50;;;5.90;;
12976;SDS011;6553;48.412;9.514;2023-05-23T00:42:43;6.72;;;6.13;;
12976;SDS011;6553;48.412;9.514;2023-05-23T00:45:09;6.82;;;6.22;;
12976;SDS011;6553;48.412;9.514;2023-05-23T00:47:39;7.00;;;6.40;;
12976;SDS011;6553;48.412;9.514;2023-05-23T00:50:07;6.95;;;6.38;;
12976;SDS011;6553;48.412;9.514;2023-05-23T00:52:36;6.78;;;6.07;;
12976;SDS011;6553;48.412;9.514;2023-05-23T00:55:03;6.97;;;6.38;;
12976;SDS011;6553;48.412;9.514;2023-05-23T00:57:30;6.45;;;5.95;;
12976;SDS011;6553;48.412;9.514;2023-05-23T01:00:02;6.35;;;5.85;;
12976;SDS011;6553;48.412;9.514;2023-05-23T01:02:28;7.47;;;6.78;;
12976;SDS011;6553;48.412;9.514;2023-05-23T01:04:57;6.97;;;6.38;;
12976;SDS011;6553;48.412;9.514;2023-05-23T01:07:23;7.05;;;6.35;;
12976;SDS011;6553;48.412;9.514;2023-05-23T01:09:49;6.93;;;6.32;;
12976;SDS011;6553;48.412;9.514;2023-05-23T01:15:17;6.40;;;5.80;;
12976;SDS011;6553;48.412;9.514;2023-05-23T01:18:01;6.63;;;6.13;;
12976;SDS011;6553;48.412;9.514;2023-05-23T01:20:38;6.88;;;6.28;;
12976;SDS011;6553;48.412;9.514;2023-05-23T01:23:27;6.90;;;6.30;;
12976;SDS011;6553;48.412;9.514;2023-05-23T01:28:56;7.03;;;6.38;;
12976;SDS011;6553;48.412;9.514;2023-05-23T01:31:48;6.82;;;6.13;;
12976;SDS011;6553;48.412;9.514;2023-05-23T01:34:19;7.07;;;6.47;;
12976;SDS011;6553;48.412;9.514;2023-05-23T01:36:48;7.25;;;6.65;;
12976;SDS011;6553;48.412;9.514;2023-05-23T01:39:18;7.75;;;7.05;;
12976;SDS011;6553;48.412;9.514;2023-05-23T01:41:44;7.72;;;7.03;;
12976;SDS011;6553;48.412;9.514;2023-05-23T01:44:10;7.25;;;6.65;;
12976;SDS011;6553;48.412;9.514;2023-05-23T01:46:36;7.47;;;6.78;;
12976;SDS011;6553;48.412;9.514;2023-05-23T01:49:04;8.52;;;7.70;;
12976;SDS011;6553;48.412;9.514;2023-05-23T01:51:34;8.13;;;7.32;;
12976;SDS011;6553;48.412;9.514;2023-05-23T01:54:00;8.25;;;7.55;;
12976;SDS011;6553;48.412;9.514;2023-05-23T01:56:26;8.50;;;7.70;;
12976;SDS011;6553;48.412;9.514;2023-05-23T01:58:53;7.97;;;7.25;;
12976;SDS011;6553;48.412;9.514;2023-05-23T02:01:19;7.88;;;7.15;;
12976;SDS011;6553;48.412;9.514;2023-05-23T02:03:46;8.38;;;7.63;;
12976;SDS011;6553;48.412;9.514;2023-05-23T02:06:12;8.18;;;7.47;;
12976;SDS011;6553;48.412;9.514;2023-05-23T02:08:37;8.13;;;7.30;;
12976;SDS011;6553;48.412;9.514;2023-05-23T02:11:03;8.25;;;7.55;;
12976;SDS011;6553;48.412;9.514;2023-05-23T02:13:29;7.93;;;7.22;;
12976;SDS011;6553;48.412;9.514;2023-05-23T02:15:55;8.60;;;7.80;;
12976;SDS011;6553;48.412;9.514;2023-05-23T02:18:21;8.48;;;7.60;;
12976;SDS011;6553;48.412;9.514;2023-05-23T02:20:50;9.48;;;8.57;;
12976;SDS011;6553;48.412;9.514;2023-05-23T02:23:16;9.18;;;8.27;;
12976;SDS011;6553;48.412;9.514;2023-05-23T02:25:42;9.25;;;8.38;;
12976;SDS011;6553;48.412;9.514;2023-05-23T02:28:07;8.30;;;7.50;;
12976;SDS011;6553;48.412;9.514;2023-05-23T02:30:33;9.38;;;8.45;;
12976;SDS011;6553;48.412;9.514;2023-05-23T02:33:03;9.35;;;8.45;;
12976;SDS011;6553;48.412;9.514;2023-05-23T02:35:30;9.32;;;8.50;;
12976;SDS011;6553;48.412;9.514;2023-05-23T02:37:57;9.63;;;8.65;;
12976;SDS011;6553;48.412;9.514;2023-05-23T02:40:22;9.57;;;8.57;;
12976;SDS011;6553;48.412;9.514;2023-05-23T02:42:48;9.60;;;8.60;;
12976;SDS011;6553;48.412;9.514;2023-05-23T02:45:16;9.55;;;8.40;;
12976;SDS011;6553;48.412;9.514;2023-05-23T02:47:42;9.45;;;8.55;;
12976;SDS011;6553;48.412;9.514;2023-05-23T02:50:08;10.10;;;9.10;;
12976;SDS011;6553;48.412;9.514;2023-05-23T02:52:34;10.23;;;9.00;;
12976;SDS011;6553;48.412;9.514;2023-05-23T02:55:01;9.80;;;8.90;;
12976;SDS011;6553;48.412;9.514;2023-05-23T02:57:32;9.90;;;8.90;;
12976;SDS011;6553;48.412;9.514;2023-05-23T02:59:58;9.77;;;8.85;;
12976;SDS011;6553;48.412;9.514;2023-05-23T03:02:25;9.63;;;8.70;;
12976;SDS011;6553;48.412;9.514;2023-05-23T03:04:51;11.10;;;9.10;;
12976;SDS011;6553;48.412;9.514;2023-05-23T03:07:17;10.43;;;9.00;;
12976;SDS011;6553;48.412;9.514;2023-05-23T03:09:42;9.75;;;8.75;;
12976;SDS011;6553;48.412;9.514;2023-05-23T03:12:09;10.18;;;8.90;;
12976;SDS011;6553;48.412;9.514;2023-05-23T03:14:34;10.30;;;9.20;;
12976;SDS011;6553;48.412;9.514;2023-05-23T03:17:00;10.23;;;9.23;;
12976;SDS011;6553;48.412;9.514;2023-05-23T03:19:28;9.82;;;8.88;;
12976;SDS011;6553;48.412;9.514;2023-05-23T03:21:53;9.43;;;8.52;;
12976;SDS011;6553;48.412;9.514;2023-05-23T03:24:19;10.35;;;9.35;;
12976;SDS011;6553;48.412;9.514;2023-05-23T03:26:45;10.50;;;8.85;;
12976;SDS011;6553;48.412;9.514;2023-05-23T03:29:11;9.60;;;8.60;;
12976;SDS011;6553;48.412;9.514;2023-05-23T03:31:36;10.07;;;9.05;;
12976;SDS011;6553;48.412;9.514;2023-05-23T03:34:02;11.68;;;9.55;;
12976;SDS011;6553;48.412;9.514;2023-05-23T03:36:31;10.63;;;9.52;;
12976;SDS011;6553;48.412;9.514;2023-05-23T03:38:58;10.55;;;9.50;;
12976;SDS011;6553;48.412;9.514;2023-05-23T03:41:24;10.10;;;9.10;;
12976;SDS011;6553;48.412;9.514;2023-05-23T03:43:50;10.07;;;9.07;;
12976;SDS011;6553;48.412;9.514;2023-05-23T03:46:16;11.00;;;9.90;;
12976;SDS011;6553;48.412;9.514;2023-05-23T03:48:42;11.57;;;10.48;;
12976;SDS011;6553;48.412;9.514;2023-05-23T03:51:08;11.13;;;10.13;;
12976;SDS011;6553;48.412;9.514;2023-05-23T03:53:35;10.25;;;9.25;;
12976;SDS011;6553;48.412;9.514;2023-05-23T03:56:01;10.95;;;9.85;;
12976;SDS011;6553;48.412;9.514;2023-05-23T03:58:27;10.55;;;9.48;;
12976;SDS011;6553;48.412;9.514;2023-05-23T04:00:58;10.88;;;9.68;;
12976;SDS011;6553;48.412;9.514;2023-05-23T04:03:24;10.93;;;9.93;;
12976;SDS011;6553;48.412;9.514;2023-05-23T04:05:51;10.27;;;9.27;;
12976;SDS011;6553;48.412;9.514;2023-05-23T04:08:17;11.63;;;10.43;;
12976;SDS011;6553;48.412;9.514;2023-05-23T04:10:46;11.02;;;9.93;;
12976;SDS011;6553;48.412;9.514;2023-05-23T04:13:12;11.63;;;10.43;;
12976;SDS011;6553;48.412;9.514;2023-05-23T04:15:39;11.05;;;9.90;;
12976;SDS011;6553;48.412;9.514;2023-05-23T04:18:09;10.90;;;9.80;;
12976;SDS011;6553;48.412;9.514;2023-05-23T04:20:36;13.32;;;10.60;;
12976;SDS011;6553;48.412;9.514;2023-05-23T04:23:03;11.43;;;10.25;;
12976;SDS011;6553;48.412;9.514;2023-05-23T04:25:31;11.75;;;10.55;;
12976;SDS011;6553;48.412;9.514;2023-05-23T04:28:17;11.43;;;10.15;;
12976;SDS011;6553;48.412;9.514;2023-05-23T04:30:43;11.32;;;10.13;;
12976;SDS011;6553;48.412;9.514;2023-05-23T04:33:10;12.23;;;11.02;;
12976;SDS011;6553;48.412;9.514;2023-05-23T04:35:36;13.48;;;11.88;;
12976;SDS011;6553;48.412;9.514;2023-05-23T04:38:05;11.95;;;10.75;;
12976;SDS011;6553;48.412;9.514;2023-05-23T04:40:32;11.57;;;10.38;;
12976;SDS011;6553;48.412;9.514;2023-05-23T04:43:03;11.73;;;10.48;;
12976;SDS011;6553;48.412;9.514;2023-05-23T04:45:48;13.13;;;11.48;;
12976;SDS011;6553;48.412;9.514;2023-05-23T04:48:34;12.07;;;10.82;;
12976;SDS011;6553;48.412;9.514;2023-05-23T04:51:02;12.35;;;11.13;;
12976;SDS011;6553;48.412;9.514;2023-05-23T04:53:40;11.77;;;10.57;;
12976;SDS011;6553;48.412;9.514;2023-05-23T04:56:09;11.95;;;10.70;;
12976;SDS011;6553;48.412;9.514;2023-05-23T04:58:36;12.30;;;11.10;;
12976;SDS011;6553;48.412;9.514;2023-05-23T05:01:06;10.80;;;9.70;;
12976;SDS011;6553;48.412;9.514;2023-05-23T05:03:33;13.02;;;11.73;;
12976;SDS011;6553;48.412;9.514;2023-05-23T05:05:59;14.52;;;12.77;;
12976;SDS011;6553;48.412;9.514;2023-05-23T05:08:26;16.70;;;12.52;;
12976;SDS011;6553;48.412;9.514;2023-05-23T05:10:55;12.35;;;11.05;;
12976;SDS011;6553;48.412;9.514;2023-05-23T05:13:22;13.07;;;11.77;;
12976;SDS011;6553;48.412;9.514;2023-05-23T05:15:51;13.20;;;11.88;;
12976;SDS011;6553;48.412;9.514;2023-05-23T05:18:17;12.57;;;11.35;;
12976;SDS011;6553;48.412;9.514;2023-05-23T05:20:43;14.10;;;12.57;;
12976;SDS011;6553;48.412;9.514;2023-05-23T05:23:10;13.80;;;12.40;;
12976;SDS011;6553;48.412;9.514;2023-05-23T05:25:36;14.68;;;11.88;;
12976;SDS011;6553;48.412;9.514;2023-05-23T05:28:03;14.48;;;12.98;;
12976;SDS011;6553;48.412;9.514;2023-05-23T05:30:31;13.27;;;11.95;;
12976;SDS011;6553;48.412;9.514;2023-05-23T05:33:03;13.45;;;12.05;;
12976;SDS011;6553;48.412;9.514;2023-05-23T05:35:31;14.18;;;12.77;;
12976;SDS011;6553;48.412;9.514;2023-05-23T05:37:58;14.07;;;12.65;;
12976;SDS011;6553;48.412;9.514;2023-05-23T05:40:25;13.35;;;12.05;;
12976;SDS011;6553;48.412;9.514;2023-05-23T05:42:50;14.23;;;12.73;;
12976;SDS011;6553;48.412;9.514;2023-05-23T05:45:17;14.38;;;12.68;;
12976;SDS011;6553;48.412;9.514;2023-05-23T05:47:44;13.88;;;12.48;;
12976;SDS011;6553;48.412;9.514;2023-05-23T05:50:11;14.80;;;13.30;;
12976;SDS011;6553;48.412;9.514;2023-05-23T05:52:36;13.65;;;12.25;;
12976;SDS011;6553;48.412;9.514;2023-05-23T05:55:05;14.00;;;12.50;;
12976;SDS011;6553;48.412;9.514;2023-05-23T05:57:33;14.23;;;12.73;;
12976;SDS011;6553;48.412;9.514;2023-05-23T06:00:03;13.98;;;12.57;;
12976;SDS011;6553;48.412;9.514;2023-05-23T06:02:44;13.57;;;12.18;;
12976;SDS011;6553;48.412;9.514;2023-05-23T06:05:13;13.88;;;12.43;;
12976;SDS011;6553;48.412;9.514;2023-05-23T06:07:41;13.88;;;12.20;;
12976;SDS011;6553;48.412;9.514;2023-05-23T06:10:12;15.30;;;13.70;;
12976;SDS011;6553;48.412;9.514;2023-05-23T06:12:41;14.25;;;12.77;;
12976;SDS011;6553;48.412;9.514;2023-05-23T06:15:07;13.32;;;11.90;;
12976;SDS011;6553;48.412;9.514;2023-05-23T06:17:36;14.18;;;12.68;;
12976;SDS011;6553;48.412;9.514;2023-05-23T06:20:02;13.85;;;12.52;;
12976;SDS011;6553;48.412;9.514;2023-05-23T06:22:29;14.13;;;12.32;;
12976;SDS011;6553;48.412;9.514;2023-05-23T06:24:55;13.75;;;12.35;;
12976;SDS011;6553;48.412;9.514;2023-05-23T06:27:22;15.32;;;12.73;;
12976;SDS011;6553;48.412;9.514;2023-05-23T06:29:48;13.13;;;11.93;;
12976;SDS011;6553;48.412;9.514;2023-05-23T06:32:14;13.70;;;12.23;;
12976;SDS011;6553;48.412;9.514;2023-05-23T06:34:40;14.60;;;13.10;;
12976;SDS011;6553;48.412;9.514;2023-05-23T06:37:06;13.73;;;12.32;;
12976;SDS011;6553;48.412;9.514;2023-05-23T06:39:31;14.55;;;13.15;;
12976;SDS011;6553;48.412;9.514;2023-05-23T06:41:57;13.50;;;12.20;;
12976;SDS011;6553;48.412;9.514;2023-05-23T06:44:23;13.50;;;12.20;;
12976;SDS011;6553;48.412;9.514;2023-05-23T06:46:52;13.32;;;12.00;;
12976;SDS011;6553;48.412;9.514;2023-05-23T06:49:23;13.63;;;12.30;;
12976;SDS011;6553;48.412;9.514;2023-05-23T06:51:50;14.05;;;12.57;;
12976;SDS011;6553;48.412;9.514;2023-05-23T06:54:17;14.25;;;12.85;;
12976;SDS011;6553;48.412;9.514;2023-05-23T06:56:43;16.10;;;14.50;;
12976;SDS011;6553;48.412;9.514;2023-05-23T06:59:09;15.40;;;13.80;;
12976;SDS011;6553;48.412;9.514;2023-05-23T07:01:35;14.55;;;13.05;;
12976;SDS011;6553;48.412;9.514;2023-05-23T07:04:01;14.68;;;13.18;;
12976;SDS011;6553;48.412;9.514;2023-05-23T07:06:27;14.05;;;12.65;;
12976;SDS011;6553;48.412;9.514;2023-05-23T07:08:53;15.55;;;14.00;;
12976;SDS011;6553;48.412;9.514;2023-05-23T07:11:21;14.55;;;13.05;;
12976;SDS011;6553;48.412;9.514;2023-05-23T07:13:52;14.25;;;12.75;;
12976;SDS011;6553;48.412;9.514;2023-05-23T07:16:33;13.73;;;12.35;;
12976;SDS011;6553;48.412;9.514;2023-05-23T07:19:02;13.02;;;11.75;;
12976;SDS011;6553;48.412;9.514;2023-05-23T07:21:30;14.35;;;12.85;;
12976;SDS011;6553;48.412;9.514;2023-05-23T07:23:56;13.57;;;12.25;;
12976;SDS011;6553;48.412;9.514;2023-05-23T07:26:22;14.15;;;12.65;;
12976;SDS011;6553;48.412;9.514;2023-05-23T07:28:52;13.27;;;11.95;;
12976;SDS011;6553;48.412;9.514;2023-05-23T07:31:18;13.57;;;12.18;;
12976;SDS011;6553;48.412;9.514;2023-05-23T07:33:45;13.07;;;11.77;;
12976;SDS011;6553;48.412;9.514;2023-05-23T07:36:16;13.77;;;12.43;;
12976;SDS011;6553;48.412;9.514;2023-05-23T07:38:42;13.88;;;12.27;;
12976;SDS011;6553;48.412;9.514;2023-05-23T07:41:08;13.60;;;12.20;;
12976;SDS011;6553;48.412;9.514;2023-05-23T07:43:34;14.70;;;13.25;;
12976;SDS011;6553;48.412;9.514;2023-05-23T07:46:00;14.30;;;12.52;;
12976;SDS011;6553;48.412;9.514;2023-05-23T07:48:25;13.45;;;12.15;;
12976;SDS011;6553;48.412;9.514;2023-05-23T07:50:51;13.70;;;12.40;;
12976;SDS011;6553;48.412;9.514;2023-05-23T07:53:20;14.48;;;12.98;;
12976;SDS011;6553;48.412;9.514;2023-05-23T07:55:49;12.88;;;11.68;;
12976;SDS011;6553;48.412;9.514;2023-05-23T07:58:15;14.07;;;12.68;;
12976;SDS011;6553;48.412;9.514;2023-05-23T08:00:41;14.00;;;12.65;;
12976;SDS011;6553;48.412;9.514;2023-05-23T08:03:21;14.02;;;11.98;;
12976;SDS011;6553;48.412;9.514;2023-05-23T08:05:58;12.45;;;11.25;;
12976;SDS011;6553;48.412;9.514;2023-05-23T08:08:24;12.65;;;11.35;;
12976;SDS011;6553;48.412;9.514;2023-05-23T08:10:49;12.65;;;11.45;;
12976;SDS011;6553;48.412;9.514;2023-05-23T08:13:22;12.02;;;10.93;;
12976;SDS011;6553;48.412;9.514;2023-05-23T08:16:08;13.35;;;12.05;;
12976;SDS011;6553;48.412;9.514;2023-05-23T08:18:33;13.98;;;12.25;;
12976;SDS011;6553;48.412;9.514;2023-05-23T08:21:00;12.82;;;11.63;;
12976;SDS011;6553;48.412;9.514;2023-05-23T08:23:28;13.30;;;11.98;;
12976;SDS011;6553;48.412;9.514;2023-05-23T08:25:54;13.32;;;11.98;;
12976;SDS011;6553;48.412;9.514;2023-05-23T08:28:21;13.57;;;12.27;;
12976;SDS011;6553;48.412;9.514;2023-05-23T08:30:52;13.02;;;11.82;;
12976;SDS011;6553;48.412;9.514;2023-05-23T08:33:18;12.95;;;11.60;;
12976;SDS011;6553;48.412;9.514;2023-05-23T08:35:46;12.82;;;11.52;;
12976;SDS011;6553;48.412;9.514;2023-05-23T08:38:13;12.80;;;11.50;;
12976;SDS011;6553;48.412;9.514;2023-05-23T08:40:56;12.38;;;11.18;;
12976;SDS011;6553;48.412;9.514;2023-05-23T08:43:27;12.43;;;11.23;;
12976;SDS011;6553;48.412;9.514;2023-05-23T08:45:53;11.70;;;10.60;;
12976;SDS011;6553;48.412;9.514;2023-05-23T08:48:20;11.45;;;10.40;;
12976;SDS011;6553;48.412;9.514;2023-05-23T08:50:49;11.68;;;10.65;;
12976;SDS011;6553;48.412;9.514;2023-05-23T08:53:18;11.43;;;10.30;;
12976;SDS011;6553;48.412;9.514;2023-05-23T08:56:00;13.23;;;12.02;;
12976;SDS011;6553;48.412;9.514;2023-05-23T08:58:34;12.13;;;11.02;;
12976;SDS011;6553;48.412;9.514;2023-05-23T09:01:01;11.18;;;10.18;;
12976;SDS011;6553;48.412;9.514;2023-05-23T09:03:27;12.10;;;10.95;;
12976;SDS011;6553;48.412;9.514;2023-05-23T09:06:09;10.40;;;9.50;;
12976;SDS011;6553;48.412;9.514;2023-05-23T09:08:36;11.25;;;10.15;;
12976;SDS011;6553;48.412;9.514;2023-05-23T09:11:02;11.50;;;10.40;;
12976;SDS011;6553;48.412;9.514;2023-05-23T09:13:33;11.75;;;10.65;;
12976;SDS011;6553;48.412;9.514;2023-05-23T09:16:02;11.32;;;10.23;;
12976;SDS011;6553;48.412;9.514;2023-05-23T09:18:39;11.68;;;10.57;;
12976;SDS011;6553;48.412;9.514;2023-05-23T09:21:09;10.85;;;9.85;;
12976;SDS011;6553;48.412;9.514;2023-05-23T09:23:44;11.95;;;10.75;;
12976;SDS011;6553;48.412;9.514;2023-05-23T09:26:10;10.55;;;9.65;;
12976;SDS011;6553;48.412;9.514;2023-05-23T09:28:41;10.63;;;9.55;;
12976;SDS011;6553;48.412;9.514;2023-05-23T09:31:08;10.40;;;9.48;;
12976;SDS011;6553;48.412;9.514;2023-05-23T09:33:37;10.40;;;9.48;;
12976;SDS011;6553;48.412;9.514;2023-05-23T09:36:16;11.25;;;10.25;;
12976;SDS011;6553;48.412;9.514;2023-05-23T09:38:44;10.05;;;9.15;;
12976;SDS011;6553;48.412;9.514;2023-05-23T09:41:13;11.32;;;10.32;;
12976;SDS011;6553;48.412;9.514;2023-05-23T09:43:48;11.15;;;10.05;;
12976;SDS011;6553;48.412;9.514;2023-05-23T09:46:14;10.27;;;9.32;;
12976;SDS011;6553;48.412;9.514;2023-05-23T09:48:45;10.52;;;9.52;;
12976;SDS011;6553;48.412;9.514;2023-05-23T09:51:13;11.25;;;10.25;;
12976;SDS011;6553;48.412;9.514;2023-05-23T09:53:39;10.50;;;9.60;;
12976;SDS011;6553;48.412;9.514;2023-05-23T09:56:05;10.75;;;9.75;;
12976;SDS011;6553;48.412;9.514;2023-05-23T09:58:35;10.38;;;9.48;;
12976;SDS011;6553;48.412;9.514;2023-05-23T10:01:04;10.88;;;9.88;;
12976;SDS011;6553;48.412;9.514;2023-05-23T10:06:26;11.07;;;10.07;;
12976;SDS011;6553;48.412;9.514;2023-05-23T10:09:13;12.93;;;10.00;;
12976;SDS011;6553;48.412;9.514;2023-05-23T10:14:23;11.00;;;10.00;;
12976;SDS011;6553;48.412;9.514;2023-05-23T10:16:58;11.32;;;10.32;;
12976;SDS011;6553;48.412;9.514;2023-05-23T10:22:14;10.90;;;9.90;;
12976;SDS011;6553;48.412;9.514;2023-05-23T10:24:41;12.02;;;10.93;;
12976;SDS011;6553;48.412;9.514;2023-05-23T10:27:10;11.50;;;10.43;;
12976;SDS011;6553;48.412;9.514;2023-05-23T10:29:36;11.82;;;10.70;;
12976;SDS011;6553;48.412;9.514;2023-05-23T10:32:03;11.50;;;10.45;;
12976;SDS011;6553;48.412;9.514;2023-05-23T10:34:33;11.45;;;10.35;;
12976;SDS011;6553;48.412;9.514;2023-05-23T10:37:11;11.27;;;10.23;;
12976;SDS011;6553;48.412;9.514;2023-05-23T10:40:00;10.90;;;9.90;;
12976;SDS011;6553;48.412;9.514;2023-05-23T10:45:49;11.32;;;10.23;;
12976;SDS011;6553;48.412;9.514;2023-05-23T10:49:01;11.02;;;9.93;;
12976;SDS011;6553;48.412;9.514;2023-05-23T10:51:09;11.43;;;10.25;;
12976;SDS011;6553;48.412;9.514;2023-05-23T10:53:52;10.75;;;9.77;;
12976;SDS011;6553;48.412;9.514;2023-05-23T10:56:19;11.00;;;9.93;;
12976;SDS011;6553;48.412;9.514;2023-05-23T10:58:51;10.50;;;9.60;;
12976;SDS011;6553;48.412;9.514;2023-05-23T11:01:22;12.13;;;10.90;;
12976;SDS011;6553;48.412;9.514;2023-05-23T11:03:49;11.05;;;10.13;;
12976;SDS011;6553;48.412;9.514;2023-05-23T11:09:18;11.65;;;10.65;;
12976;SDS011;6553;48.412;9.514;2023-05-23T11:19:37;11.57;;;10.43;;
12976;SDS011;6553;48.412;9.514;2023-05-23T11:22:07;11.13;;;10.18;;
12976;SDS011;6553;48.412;9.514;2023-05-23T11:24:49;11.43;;;10.43;;
12976;SDS011;6553;48.412;9.514;2023-05-23T11:27:27;11.13;;;10.13;;
12976;SDS011;6553;48.412;9.514;2023-05-23T11:32:53;11.25;;;10.25;;
12976;SDS011;6553;48.412;9.514;2023-05-23T11:35:20;11.55;;;10.45;;
12976;SDS011;6553;48.412;9.514;2023-05-23T11:37:46;11.20;;;10.18;;
12976;SDS011;6553;48.412;9.514;2023-05-23T11:40:31;11.57;;;10.55;;
12976;SDS011;6553;48.412;9.514;2023-05-23T11:43:01;11.63;;;10.52;;
12976;SDS011;6553;48.412;9.514;2023-05-23T11:45:30;11.80;;;10.70;;
12976;SDS011;6553;48.412;9.514;2023-05-23T11:47:57;11.50;;;10.40;;
12976;SDS011;6553;48.412;9.514;2023-05-23T11:50:23;11.38;;;10.27;;
12976;SDS011;6553;48.412;9.514;2023-05-23T11:52:49;11.45;;;10.35;;
12976;SDS011;6553;48.412;9.514;2023-05-23T11:55:16;12.48;;;11.25;;
12976;SDS011;6553;48.412;9.514;2023-05-23T11:57:44;11.93;;;10.88;;
12976;SDS011;6553;48.412;9.514;2023-05-23T12:00:10;12.00;;;10.80;;
12976;SDS011;6553;48.412;9.514;2023-05-23T12:02:40;12.18;;;11.05;;
12976;SDS011;6553;48.412;9.514;2023-05-23T12:05:11;12.38;;;11.18;;
12976;SDS011;6553;48.412;9.514;2023-05-23T12:07:45;11.18;;;10.25;;
12976;SDS011;6553;48.412;9.514;2023-05-23T12:10:13;11.80;;;10.70;;
12976;SDS011;6553;48.412;9.514;2023-05-23T12:12:45;12.18;;;11.13;;
12976;SDS011;6553;48.412;9.514;2023-05-23T12:15:11;12.10;;;10.98;;
12976;SDS011;6553;48.412;9.514;2023-05-23T12:17:38;11.52;;;10.38;;
12976;SDS011;6553;48.412;9.514;2023-05-23T12:20:12;11.65;;;10.55;;
12976;SDS011;6553;48.412;9.514;2023-05-23T12:22:38;12.07;;;10.98;;
12976;SDS011;6553;48.412;9.514;2023-05-23T12:25:06;12.40;;;11.30;;
12976;SDS011;6553;48.412;9.514;2023-05-23T12:27:35;11.25;;;10.30;;
12976;SDS011;6553;48.412;9.514;2023-05-23T12:30:06;10.93;;;9.82;;
12976;SDS011;6553;48.412;9.514;2023-05-23T12:32:38;11.65;;;10.63;;
12976;SDS011;6553;48.412;9.514;2023-05-23T12:35:07;11.43;;;10.43;;
12976;SDS011;6553;48.412;9.514;2023-05-23T12:37:42;11.38;;;10.48;;
12976;SDS011;6553;48.412;9.514;2023-05-23T12:42:50;11.73;;;10.68;;
12976;SDS011;6553;48.412;9.514;2023-05-23T12:45:30;11.20;;;10.00;;
12976;SDS011;6553;48.412;9.514;2023-05-23T12:47:58;11.23;;;10.23;;
12976;SDS011;6553;48.412;9.514;2023-05-23T12:50:26;11.07;;;10.18;;
12976;SDS011;6553;48.412;9.514;2023-05-23T12:52:51;11.65;;;10.48;;
12976;SDS011;6553;48.412;9.514;2023-05-23T12:55:17;10.60;;;9.63;;
12976;SDS011;6553;48.412;9.514;2023-05-23T12:57:43;11.25;;;10.25;;
12976;SDS011;6553;48.412;9.514;2023-05-23T13:00:09;11.45;;;10.25;;
12976;SDS011;6553;48.412;9.514;2023-05-23T13:02:36;10.98;;;9.93;;
12976;SDS011;6553;48.412;9.514;2023-05-23T13:05:03;10.60;;;9.70;;
12976;SDS011;6553;48.412;9.514;2023-05-23T13:07:30;11.18;;;10.18;;
12976;SDS011;6553;48.412;9.514;2023-05-23T13:09:56;10.65;;;9.68;;
12976;SDS011;6553;48.412;9.514;2023-05-23T13:12:22;10.30;;;9.40;;
12976;SDS011;6553;48.412;9.514;2023-05-23T13:14:48;10.50;;;9.43;;
12976;SDS011;6553;48.412;9.514;2023-05-23T13:17:15;10.35;;;9.45;;
12976;SDS011;6553;48.412;9.514;2023-05-23T13:19:41;10.65;;;9.65;;
12976;SDS011;6553;48.412;9.514;2023-05-23T13:22:07;10.40;;;9.32;;
12976;SDS011;6553;48.412;9.514;2023-05-23T13:24:37;11.00;;;9.90;;
12976;SDS011;6553;48.412;9.514;2023-05-23T13:27:04;10.32;;;9.27;;
12976;SDS011;6553;48.412;9.514;2023-05-23T13:29:31;10.13;;;9.23;;
12976;SDS011;6553;48.412;9.514;2023-05-23T13:31:58;10.32;;;9.35;;
12976;SDS011;6553;48.412;9.514;2023-05-23T13:34:24;10.95;;;9.85;;
12976;SDS011;6553;48.412;9.514;2023-05-23T13:36:51;11.52;;;9.02;;
12976;SDS011;6553;48.412;9.514;2023-05-23T13:39:17;10.38;;;9.48;;
12976;SDS011;6553;48.412;9.514;2023-05-23T13:41:45;10.75;;;9.77;;
12976;SDS011;6553;48.412;9.514;2023-05-23T13:44:11;10.32;;;9.32;;
12976;SDS011;6553;48.412;9.514;2023-05-23T13:46:37;9.77;;;8.98;;
12976;SDS011;6553;48.412;9.514;2023-05-23T13:49:03;9.80;;;8.90;;
12976;SDS011;6553;48.412;9.514;2023-05-23T13:51:29;9.75;;;8.95;;
12976;SDS011;6553;48.412;9.514;2023-05-23T13:53:56;10.32;;;9.32;;
12976;SDS011;6553;48.412;9.514;2023-05-23T13:56:22;10.05;;;9.15;;
12976;SDS011;6553;48.412;9.514;2023-05-23T13:58:48;9.98;;;9.07;;
12976;SDS011;6553;48.412;9.514;2023-05-23T14:01:14;9.55;;;8.65;;
12976;SDS011;6553;48.412;9.514;2023-05-23T14:03:41;10.75;;;9.75;;
12976;SDS011;6553;48.412;9.514;2023-05-23T14:06:07;9.25;;;8.35;;
12976;SDS011;6553;48.412;9.514;2023-05-23T14:08:32;9.90;;;8.77;;
12976;SDS011;6553;48.412;9.514;2023-05-23T14:10:59;10.07;;;9.10;;
12976;SDS011;6553;48.412;9.514;2023-05-23T14:13:24;9.77;;;8.85;;
12976;SDS011;6553;48.412;9.514;2023-05-23T14:15:50;9.10;;;8.18;;
12976;SDS011;6553;48.412;9.514;2023-05-23T14:18:18;9.50;;;8.70;;
12976;SDS011;6553;48.412;9.514;2023-05-23T14:20:44;9.73;;;8.70;;
12976;SDS011;6553;48.412;9.514;2023-05-23T14:23:09;9.70;;;8.80;;
12976;SDS011;6553;48.412;9.514;2023-05-23T14:25:35;9.35;;;8.45;;
12976;SDS011;6553;48.412;9.514;2023-05-23T14:28:01;9.77;;;8.88;;
12976;SDS011;6553;48.412;9.514;2023-05-23T14:30:27;9.73;;;8.73;;
12976;SDS011;6553;48.412;9.514;2023-05-23T14:32:53;9.35;;;8.50;;
12976;SDS011;6553;48.412;9.514;2023-05-23T14:35:19;9.48;;;8.57;;
12976;SDS011;6553;48.412;9.514;2023-05-23T14:37:46;9.48;;;8.63;;
12976;SDS011;6553;48.412;9.514;2023-05-23T14:40:12;9.35;;;8.43;;
12976;SDS011;6553;48.412;9.514;2023-05-23T14:42:40;9.23;;;8.27;;
12976;SDS011;6553;48.412;9.514;2023-05-23T14:45:06;8.80;;;7.95;;
12976;SDS011;6553;48.412;9.514;2023-05-23T14:47:32;8.73;;;8.02;;
12976;SDS011;6553;48.412;9.514;2023-05-23T14:49:59;8.75;;;7.95;;
12976;SDS011;6553;48.412;9.514;2023-05-23T14:52:25;9.65;;;8.65;;
12976;SDS011;6553;48.412;9.514;2023-05-23T14:54:51;9.15;;;8.32;;
12976;SDS011;6553;48.412;9.514;2023-05-23T14:57:17;9.55;;;8.75;;
12976;SDS011;6553;48.412;9.514;2023-05-23T14:59:42;9.02;;;8.18;;
12976;SDS011;6553;48.412;9.514;2023-05-23T15:02:08;8.77;;;8.07;;
12976;SDS011;6553;48.412;9.514;2023-05-23T15:04:34;9.57;;;8.68;;
12976;SDS011;6553;48.412;9.514;2023-05-23T15:07:01;9.18;;;8.38;;
12976;SDS011;6553;48.412;9.514;2023-05-23T15:09:27;8.63;;;7.82;;
12976;SDS011;6553;48.412;9.514;2023-05-23T15:11:54;8.82;;;8.00;;
12976;SDS011;6553;48.412;9.514;2023-05-23T15:14:20;8.90;;;8.10;;
12976;SDS011;6553;48.412;9.514;2023-05-23T15:16:47;9.50;;;8.50;;
12976;SDS011;6553;48.412;9.514;2023-05-23T15:19:14;8.35;;;7.57;;
12976;SDS011;6553;48.412;9.514;2023-05-23T15:21:40;9.15;;;8.27;;
12976;SDS011;6553;48.412;9.514;2023-05-23T15:24:07;8.38;;;7.57;;
12976;SDS011;6553;48.412;9.514;2023-05-23T15:26:33;8.73;;;7.88;;